createdAt,value
2023-01-30T00:02:26.853Z,78.55
2023-01-30T00:07:35.395Z,79.56
2023-01-30T00:12:38.797Z,79.88
2023-01-30T00:17:41.998Z,80.16
2023-01-30T00:22:59.225Z,80.43
2023-01-30T00:28:04.146Z,80.09
2023-01-30T00:33:07.254Z,80.13
2023-01-30T00:38:11.883Z,80.00
2023-01-30T00:43:34.361Z,80.64
2023-01-30T00:48:37.951Z,81.29
2023-01-30T00:53:42.513Z,81.68
2023-01-30T00:58:45.706Z,82.27
2023-01-30T01:03:48.923Z,82.84
2023-01-30T01:08:53.564Z,83.65
2023-01-30T01:13:58.021Z,84.65
2023-01-30T01:19:01.805Z,84.96
2023-01-30T01:24:09.004Z,85.59
2023-01-30T01:29:14.319Z,86.23
2023-01-30T01:34:17.477Z,85.84
2023-01-30T01:39:23.124Z,87.27
2023-01-30T01:44:26.459Z,87.27
2023-01-30T01:49:32.261Z,87.29
2023-01-30T01:54:41.430Z,87.64
2023-01-30T01:59:50.138Z,88.12
2023-01-30T02:05:06.480Z,87.78
2023-01-30T02:10:31.983Z,88.07
2023-01-30T02:15:35.630Z,87.88
2023-01-30T02:20:58.189Z,87.98
2023-01-30T02:26:40.207Z,87.81
2023-01-30T02:31:53.641Z,87.86
2023-01-30T02:37:10.158Z,88.08
2023-01-30T02:42:20.960Z,88.43
2023-01-30T02:47:31.458Z,88.63
2023-01-30T02:52:35.490Z,89.46
2023-01-30T02:57:39.254Z,89.39
2023-01-30T03:03:08.240Z,89.51
2023-01-30T03:08:21.533Z,89.65
2023-01-30T03:13:35.910Z,90.24
2023-01-30T03:18:42.290Z,90.46
2023-01-30T03:23:46.960Z,89.95
2023-01-30T03:28:51.675Z,90.87
2023-01-30T03:33:56.313Z,90.98
2023-01-30T03:38:59.584Z,91.01
2023-01-30T03:44:03.003Z,91.37
2023-01-30T03:49:07.579Z,91.10
2023-01-30T03:54:10.707Z,91.18
2023-01-30T03:59:14.214Z,91.16
2023-01-30T04:04:18.841Z,91.72
2023-01-30T04:09:22.210Z,91.09
2023-01-30T04:14:25.779Z,91.76
2023-01-30T04:19:30.487Z,91.78
2023-01-30T04:24:33.651Z,92.48
2023-01-30T04:29:36.993Z,91.66
2023-01-30T04:34:42.286Z,91.95
2023-01-30T04:39:45.617Z,92.14
2023-01-30T04:44:48.797Z,93.31
2023-01-30T04:49:53.777Z,93.07
2023-01-30T04:54:56.999Z,93.85
2023-01-30T05:00:00.218Z,93.45
2023-01-30T05:05:05.093Z,93.32
2023-01-30T05:10:09.244Z,94.25
2023-01-30T05:15:13.306Z,94.20
2023-01-30T05:20:17.875Z,94.47
2023-01-30T05:25:21.228Z,94.33
2023-01-30T05:30:24.421Z,94.39
2023-01-30T05:35:29.167Z,94.18
2023-01-30T05:40:32.232Z,94.31
2023-01-30T05:45:35.357Z,94.08
2023-01-30T05:50:39.996Z,94.68
2023-01-30T05:55:43.917Z,94.61
2023-01-30T06:01:02.333Z,96.55
2023-01-30T06:06:07.630Z,95.74
2023-01-30T06:11:27.190Z,95.17
2023-01-30T06:16:30.559Z,94.62
2023-01-30T06:21:35.343Z,94.75
2023-01-30T06:26:38.413Z,94.90
2023-01-30T06:31:41.593Z,95.21
2023-01-30T06:36:46.214Z,95.97
2023-01-30T06:41:55.039Z,95.74
2023-01-30T06:46:58.680Z,96.49
2023-01-30T06:52:11.465Z,96.80
2023-01-30T06:57:14.924Z,97.13
2023-01-30T07:02:19.198Z,97.48
2023-01-30T07:07:23.717Z,97.47
2023-01-30T07:12:27.751Z,97.54
2023-01-30T07:17:31.337Z,97.54
2023-01-30T07:22:35.943Z,98.18
2023-01-30T07:27:41.311Z,98.50
2023-01-30T07:32:44.484Z,99.43
2023-01-30T07:37:49.871Z,99.36
2023-01-30T07:43:01.053Z,99.64
2023-01-30T07:48:04.391Z,100.00
2023-01-30T07:53:11.927Z,100.00
2023-01-30T07:58:16.100Z,100.00
2023-01-30T08:03:19.622Z,100.00
2023-01-30T08:08:24.278Z,100.00
2023-01-30T08:13:27.973Z,100.00
2023-01-30T08:18:31.823Z,99.83
2023-01-30T08:23:36.415Z,99.41
2023-01-30T08:28:41.096Z,99.29
2023-01-30T08:33:44.683Z,99.21
2023-01-30T08:38:49.309Z,98.90
2023-01-30T08:43:52.373Z,98.49
2023-01-30T08:48:55.564Z,98.44
2023-01-30T08:54:00.439Z,97.68
2023-01-30T08:59:03.680Z,98.13
2023-01-30T09:04:08.565Z,97.36
2023-01-30T09:09:13.191Z,96.72
2023-01-30T09:14:19.775Z,96.72
2023-01-30T09:19:22.917Z,95.92
2023-01-30T09:24:27.902Z,96.19
2023-01-30T09:29:31.220Z,95.50
2023-01-30T09:34:34.732Z,95.21
2023-01-30T09:39:39.394Z,94.42
2023-01-30T09:45:03.865Z,93.07
2023-01-30T09:50:25.078Z,93.78
2023-01-30T09:55:32.577Z,93.05
2023-01-30T10:00:37.880Z,93.07
2023-01-30T10:05:46.369Z,92.85
2023-01-30T10:11:09.574Z,93.75
2023-01-30T10:16:20.561Z,93.13
2023-01-30T10:21:36.727Z,93.11
2023-01-30T10:26:42.814Z,93.56
2023-01-30T10:31:50.352Z,93.30
2023-01-30T10:37:01.503Z,93.13
2023-01-30T10:42:12.611Z,94.04
2023-01-30T10:47:46.314Z,94.22
2023-01-30T10:52:57.362Z,93.29
2023-01-30T10:58:08.913Z,93.72
2023-01-30T11:03:29.734Z,93.32
2023-01-30T11:08:35.481Z,93.98
2023-01-30T11:13:40.179Z,93.80
2023-01-30T11:19:19.389Z,93.89
2023-01-30T11:24:18.249Z,94.37
2023-01-30T11:29:33.832Z,93.38
2023-01-30T11:34:36.930Z,93.33
2023-01-30T11:39:51.761Z,93.72
2023-01-30T11:45:16.062Z,92.94
2023-01-30T11:50:23.338Z,92.80
2023-01-30T11:55:28.853Z,91.95
2023-01-30T12:00:40.927Z,92.47
2023-01-30T12:05:47.923Z,92.12
2023-01-30T12:10:55.346Z,92.64
2023-01-30T12:16:22.639Z,91.58
2023-01-30T12:21:35.963Z,92.64
2023-01-30T12:26:45.673Z,90.82
2023-01-30T12:31:53.411Z,91.58
2023-01-30T12:37:09.194Z,91.33
2023-01-30T12:42:27.718Z,91.25
2023-01-30T12:47:47.770Z,90.62
2023-01-30T12:53:06.285Z,91.21
2023-01-30T12:58:16.378Z,90.87
2023-01-30T13:03:27.976Z,90.80
2023-01-30T13:08:55.505Z,89.96
2023-01-30T13:14:07.013Z,90.47
2023-01-30T13:19:25.334Z,89.46
2023-01-30T13:24:42.488Z,89.63
2023-01-30T13:29:47.049Z,89.20
2023-01-30T13:34:54.640Z,89.32
2023-01-30T13:40:04.270Z,89.70
2023-01-30T13:45:16.287Z,89.34
2023-01-30T13:50:35.799Z,89.12
2023-01-30T13:55:48.715Z,89.33
2023-01-30T14:00:56.009Z,89.06
2023-01-30T14:06:15.713Z,87.91
2023-01-30T14:11:33.969Z,88.37
2023-01-30T14:16:45.675Z,87.29
2023-01-30T14:21:58.147Z,86.65
2023-01-30T14:27:03.985Z,86.70
2023-01-30T14:32:54.982Z,88.68
2023-01-30T14:38:14.935Z,92.07
2023-01-30T14:43:53.281Z,93.43
2023-01-30T14:49:05.216Z,94.37
2023-01-30T14:54:23.438Z,96.03
2023-01-30T14:59:32.258Z,96.78
2023-01-30T15:04:43.601Z,97.54
2023-01-30T15:09:55.153Z,98.67
2023-01-30T15:15:12.533Z,99.24
2023-01-30T15:20:35.698Z,100.00
2023-01-30T15:25:53.111Z,99.87
2023-01-30T15:31:05.581Z,99.30
2023-01-30T15:36:20.600Z,99.61
2023-01-30T15:41:28.568Z,99.93
2023-01-30T15:46:44.740Z,99.60
2023-01-30T15:51:49.463Z,98.83
2023-01-30T15:57:00.839Z,98.73
2023-01-30T16:02:08.148Z,98.75
2023-01-30T16:07:19.515Z,98.15
2023-01-30T16:12:28.709Z,98.34
2023-01-30T16:17:36.514Z,98.00
2023-01-30T16:22:49.524Z,97.57
2023-01-30T16:27:55.347Z,98.01
2023-01-30T16:33:10.614Z,96.85
2023-01-30T16:38:37.380Z,96.86
2023-01-30T16:43:44.468Z,96.60
2023-01-30T16:48:52.985Z,97.11
2023-01-30T16:54:06.161Z,96.94
2023-01-30T16:59:23.405Z,96.08
2023-01-30T17:04:36.798Z,95.17
2023-01-30T17:09:43.685Z,95.77
2023-01-30T17:14:50.354Z,95.35
2023-01-30T17:20:00.481Z,94.93
2023-01-30T17:25:06.475Z,94.99
2023-01-30T17:30:19.345Z,95.10
2023-01-30T17:35:26.141Z,94.70
2023-01-30T17:40:37.967Z,95.29
2023-01-30T17:45:42.888Z,95.45
2023-01-30T17:50:46.734Z,95.22
2023-01-30T17:55:53.082Z,94.88
2023-01-30T18:00:57.985Z,94.34
2023-01-30T18:06:07.180Z,94.39
2023-01-30T18:11:12.107Z,93.54
2023-01-30T18:16:26.950Z,93.85
2023-01-30T18:21:30.732Z,93.37
2023-01-30T18:26:35.360Z,92.70
2023-01-30T18:31:41.217Z,93.45
2023-01-30T18:36:44.675Z,92.36
2023-01-30T18:41:47.898Z,91.88
2023-01-30T18:46:52.879Z,91.50
2023-01-30T18:51:56.343Z,92.62
2023-01-30T18:56:59.572Z,92.54
2023-01-30T19:02:04.116Z,92.53
2023-01-30T19:07:07.422Z,93.49
2023-01-30T19:12:34.254Z,93.70
2023-01-30T19:17:39.550Z,93.56
2023-01-30T19:22:43.044Z,93.72
2023-01-30T19:27:46.581Z,93.58
2023-01-30T19:32:53.553Z,94.13
2023-01-30T19:38:00.373Z,94.18
2023-01-30T19:43:10.858Z,94.07
2023-01-30T19:48:16.873Z,94.80
2023-01-30T19:53:20.259Z,94.61
2023-01-30T19:58:23.632Z,95.24
2023-01-30T20:03:28.515Z,94.81
2023-01-30T20:08:32.950Z,94.36
2023-01-30T20:13:36.995Z,95.10
2023-01-30T20:18:46.454Z,94.71
2023-01-30T20:23:52.700Z,94.98
2023-01-30T20:28:56.922Z,94.82
2023-01-30T20:34:02.163Z,94.83
2023-01-30T20:39:07.580Z,95.35
2023-01-30T20:44:15.672Z,94.45
2023-01-30T20:49:21.555Z,94.50
2023-01-30T20:54:25.258Z,94.51
2023-01-30T20:59:29.155Z,94.47
2023-01-30T21:04:33.851Z,94.11
2023-01-30T21:09:37.205Z,93.51
2023-01-30T21:14:41.369Z,92.31
2023-01-30T21:19:46.161Z,92.71
2023-01-30T21:24:49.929Z,92.27
2023-01-30T21:29:53.124Z,93.12
2023-01-30T21:34:58.175Z,92.81
2023-01-30T21:40:18.582Z,91.44
2023-01-30T21:45:32.331Z,91.86
2023-01-30T21:50:36.907Z,91.84
2023-01-30T21:55:43.703Z,91.45
2023-01-30T22:00:47.176Z,91.62
2023-01-30T22:05:51.670Z,91.94
2023-01-30T22:11:05.833Z,92.05
2023-01-30T22:16:11.478Z,93.21
2023-01-30T22:21:18.664Z,93.54
2023-01-30T22:26:25.545Z,93.19
2023-01-30T22:31:31.889Z,93.49
2023-01-30T22:36:41.394Z,94.14
2023-01-30T22:41:44.967Z,93.63
2023-01-30T22:46:51.128Z,94.99
2023-01-30T22:51:55.894Z,95.19
2023-01-30T22:56:59.638Z,95.66
2023-01-30T23:02:03.479Z,94.38
2023-01-30T23:07:08.681Z,94.32
2023-01-30T23:12:41.416Z,94.80
2023-01-30T23:18:02.432Z,94.70
2023-01-30T23:23:08.006Z,95.94
2023-01-30T23:28:11.464Z,95.01
2023-01-30T23:33:15.167Z,96.05
2023-01-30T23:38:20.176Z,96.51
2023-01-30T23:43:23.414Z,97.11
2023-01-30T23:48:26.667Z,96.91
2023-01-30T23:53:31.302Z,97.76
2023-01-30T23:58:35.176Z,98.04
